Park Heights, Pennsylvania
Current Conditions -  °F | °C
As of 12:53 PM on Thursday 30 Oct 2014 (Local Time) from KTHV Reporting Station
Broken Clouds Broken Clouds  
Wind Chill: 12°   Ceiling: 6000
Heat Index: 12°   Visibility: 10mi
Dew Point:   Wind: 9mph
Humidity: 57%   Direction: 320°NW
Pressure: 30.05"   Gusts: NA
Location:  39.7863°N, 76.988°W
Report Text: KTHV 301653Z AUTO 32008KT 10SM SCT039 BKN060 12/04 A3005 RMK AO2 SLP178 T01220039
Loading
Personal Weather Stations






























Interactive Weather Map
Tropical Storm Tracking
New forecast layout! Learn more

10-Day Weather Forecast

Advertisements
Track Severe Weather on mobile